Time;durP1;ratioP1;P1;durP2;ratioP2;P2;SDS_P1;SDS_P2;PMS_P1;PMS_P2;Temp;Humidity;BMP_temperature;BMP_pressure;BME280_temperature;BME280_humidity;BME280_pressure;Samples;Min_cycle;Max_cycle;Signal;HPM_P1;HPM_P2
2023/10/16 00:01:15;;;;;;;0.40;0.20;;;12.00;99.90;;;;;;5044654;28;20209;-87
2023/10/16 00:03:42;;;;;;;0.30;0.20;;;11.90;99.90;;;;;;5046134;28;20173;-85
2023/10/16 00:06:11;;;;;;;0.60;0.60;;;11.90;99.90;;;;;;5044402;28;20206;-73
2023/10/16 00:08:50;;;;;;;1.73;1.00;;;11.90;99.90;;;;;;5045132;28;20218;-74
2023/10/16 00:11:23;;;;;;;0.30;0.20;;;11.80;99.90;;;;;;5046720;28;20231;-73
2023/10/16 00:13:49;;;;;;;0.30;0.20;;;11.70;99.90;;;;;;5046594;28;20177;-73
2023/10/16 00:16:17;;;;;;;0.30;0.20;;;11.70;99.90;;;;;;5044412;28;20244;-87
2023/10/16 00:18:45;;;;;;;0.30;0.20;;;11.60;99.90;;;;;;5045008;28;20188;-73
2023/10/16 00:21:13;;;;;;;0.30;0.20;;;11.60;99.90;;;;;;5046013;28;20209;-86
2023/10/16 00:23:40;;;;;;;0.40;0.20;;;11.60;99.90;;;;;;5045862;28;20174;-73
2023/10/16 00:26:06;;;;;;;0.30;0.20;;;11.60;99.90;;;;;;5044202;28;20205;-87
2023/10/16 00:28:33;;;;;;;0.30;0.20;;;11.60;99.90;;;;;;5045669;28;20186;-87
2023/10/16 00:30:59;;;;;;;0.30;0.20;;;11.60;99.90;;;;;;5045789;28;20200;-86
2023/10/16 00:33:25;;;;;;;0.30;0.20;;;11.60;99.90;;;;;;5077880;28;20181;-73
2023/10/16 00:35:50;;;;;;;0.30;0.20;;;11.60;99.90;;;;;;5044759;28;20472;-87
2023/10/16 00:38:22;;;;;;;0.30;0.20;;;11.60;99.90;;;;;;5077883;28;20181;-74
2023/10/16 00:41:24;;;;;;;0.30;0.20;;;11.60;99.90;;;;;;5045351;28;20240;-73
2023/10/16 00:43:43;;;;;;;0.30;0.20;;;11.60;99.90;;;;;;5043614;28;20563;-74
2023/10/16 00:46:14;;;;;;;0.30;0.20;;;11.50;99.90;;;;;;5044007;28;20198;-87
2023/10/16 00:48:40;;;;;;;0.30;0.20;;;11.50;99.90;;;;;;5077924;28;20524;-87
2023/10/16 00:51:09;;;;;;;0.30;0.20;;;11.50;99.90;;;;;;5045754;28;20523;-87
2023/10/16 00:53:40;;;;;;;0.30;0.20;;;11.50;99.90;;;;;;5044456;28;20415;-73
2023/10/16 00:56:08;;;;;;;0.30;0.20;;;11.50;99.90;;;;;;5043962;28;20416;-73
2023/10/16 00:58:35;;;;;;;0.30;0.30;;;11.50;99.90;;;;;;5045826;28;20174;-73
2023/10/16 01:01:14;;;;;;;0.30;0.20;;;11.50;99.90;;;;;;5043932;28;20682;-73
2023/10/16 01:03:42;;;;;;;0.30;0.20;;;11.50;99.90;;;;;;5044118;28;20208;-87
2023/10/16 01:06:24;;;;;;;0.30;0.20;;;11.50;99.90;;;;;;5045569;28;20200;-87
2023/10/16 01:08:50;;;;;;;0.30;0.20;;;11.50;99.90;;;;;;5044795;28;20186;-87
2023/10/16 01:11:20;;;;;;;0.30;0.20;;;11.40;99.90;;;;;;5077280;28;20237;-73
2023/10/16 01:13:50;;;;;;;0.30;0.20;;;11.40;99.90;;;;;;5047517;28;20182;-74
2023/10/16 01:16:17;;;;;;;0.30;0.20;;;11.40;99.90;;;;;;5048533;28;20209;-73
2023/10/16 01:18:44;;;;;;;0.30;0.20;;;11.30;99.90;;;;;;5049400;28;20316;-73
2023/10/16 01:21:12;;;;;;;0.30;0.20;;;11.30;99.90;;;;;;5048852;28;20310;-86
2023/10/16 01:23:40;;;;;;;0.30;0.20;;;11.20;99.90;;;;;;5048691;28;20188;-87
2023/10/16 01:26:06;;;;;;;0.30;0.20;;;11.20;99.90;;;;;;5047282;28;20204;-73
2023/10/16 01:28:32;;;;;;;0.30;0.20;;;11.20;99.90;;;;;;5048754;28;20651;-73
2023/10/16 01:31:00;;;;;;;0.30;0.20;;;11.20;99.90;;;;;;5080381;28;20284;-73
2023/10/16 01:33:26;;;;;;;0.30;0.20;;;11.20;99.90;;;;;;5047380;28;20182;-87
2023/10/16 01:35:52;;;;;;;0.30;0.20;;;11.10;99.90;;;;;;5047294;28;20757;-87
2023/10/16 01:38:18;;;;;;;0.30;0.20;;;11.10;99.90;;;;;;5080439;28;21031;-86
2023/10/16 01:41:09;;;;;;;0.30;0.20;;;11.10;99.90;;;;;;5048571;28;20190;-87
2023/10/16 01:43:36;;;;;;;0.30;0.20;;;11.10;99.90;;;;;;5047055;28;20190;-86
2023/10/16 01:46:08;;;;;;;0.30;0.20;;;11.00;99.90;;;;;;5046828;28;20193;-87
2023/10/16 01:48:40;;;;;;;0.30;0.20;;;11.00;99.90;;;;;;5048659;28;20770;-86
2023/10/16 01:51:09;;;;;;;0.30;0.20;;;11.00;99.90;;;;;;5046857;28;20667;-87
2023/10/16 01:53:42;;;;;;;0.30;0.20;;;11.00;99.90;;;;;;5048543;28;20181;-86
2023/10/16 01:56:14;;;;;;;0.30;0.20;;;11.00;99.90;;;;;;5048535;28;20216;-86
2023/10/16 01:58:47;;;;;;;0.30;0.20;;;11.00;99.90;;;;;;5048764;28;20337;-87
2023/10/16 02:01:15;;;;;;;0.30;0.20;;;11.00;99.90;;;;;;5046804;28;20672;-86
2023/10/16 02:03:45;;;;;;;0.30;0.20;;;11.00;99.90;;;;;;5048445;28;20185;-87
2023/10/16 02:06:12;;;;;;;0.30;0.20;;;11.00;99.90;;;;;;5046236;28;20220;-73
2023/10/16 02:08:39;;;;;;;0.30;0.20;;;11.00;99.90;;;;;;5046642;28;20190;-74
2023/10/16 02:11:06;;;;;;;0.30;0.20;;;10.90;99.90;;;;;;5047843;28;20233;-73
2023/10/16 02:13:35;;;;;;;0.30;0.20;;;10.90;99.90;;;;;;5046823;28;20298;-86
2023/10/16 02:16:02;;;;;;;0.30;0.20;;;10.90;99.90;;;;;;5047801;28;20228;-86
2023/10/16 02:18:36;;;;;;;0.30;0.20;;;10.90;99.90;;;;;;5048041;28;20375;-73
2023/10/16 02:21:02;;;;;;;0.30;0.20;;;10.90;99.90;;;;;;5046234;28;20208;-87
2023/10/16 02:23:30;;;;;;;0.30;0.20;;;10.90;99.90;;;;;;5048130;28;20178;-73
2023/10/16 02:25:59;;;;;;;0.30;0.20;;;10.90;99.90;;;;;;5044914;28;20292;-73
2023/10/16 02:28:25;;;;;;;0.30;0.20;;;10.80;99.90;;;;;;5047743;28;20418;-73
2023/10/16 02:30:51;;;;;;;0.30;0.20;;;10.80;99.90;;;;;;5046036;28;20328;-73
2023/10/16 02:33:29;;;;;;;0.30;0.20;;;10.80;99.90;;;;;;5046319;28;20778;-86
2023/10/16 02:36:02;;;;;;;0.30;0.20;;;10.80;99.90;;;;;;5079938;28;20882;-86
2023/10/16 02:38:28;;;;;;;0.30;0.20;;;10.80;99.90;;;;;;5047618;28;20269;-73
2023/10/16 02:41:01;;;;;;;0.30;0.20;;;10.80;99.90;;;;;;5044759;28;20274;-74
2023/10/16 02:43:29;;;;;;;0.30;0.20;;;10.80;99.90;;;;;;5047702;28;20162;-87
2023/10/16 02:45:56;;;;;;;0.30;0.20;;;10.70;99.90;;;;;;5045696;28;20208;-73
2023/10/16 02:48:22;;;;;;;0.30;0.20;;;10.70;99.90;;;;;;5045991;28;20285;-73
2023/10/16 02:50:50;;;;;;;0.30;0.20;;;10.70;99.90;;;;;;5046089;28;20213;-73
2023/10/16 02:53:22;;;;;;;0.30;0.20;;;10.60;99.90;;;;;;5045763;28;20182;-87
2023/10/16 02:55:49;;;;;;;0.30;0.20;;;10.60;99.90;;;;;;5046665;28;20213;-73
2023/10/16 02:58:16;;;;;;;0.30;0.20;;;10.60;99.90;;;;;;5047089;28;20171;-74
2023/10/16 03:00:49;;;;;;;0.30;0.20;;;10.50;99.90;;;;;;5046968;28;20229;-73
2023/10/16 03:03:17;;;;;;;0.30;0.20;;;10.50;99.90;;;;;;5046959;28;20629;-87
2023/10/16 03:05:44;;;;;;;0.30;0.20;;;10.50;99.90;;;;;;5079041;28;20198;-86
2023/10/16 03:08:10;;;;;;;0.30;0.20;;;10.40;99.90;;;;;;5045421;28;20174;-86
2023/10/16 03:10:40;;;;;;;0.30;0.20;;;10.40;99.90;;;;;;5047097;28;20302;-87
2023/10/16 03:13:06;;;;;;;0.30;0.20;;;10.40;99.90;;;;;;5046487;28;20807;-73
2023/10/16 03:16:11;;;;;;;0.30;0.20;;;10.50;99.90;;;;;;5045153;28;20630;-73
2023/10/16 03:18:28;;;;;;;0.30;0.20;;;10.50;99.90;;;;;;5046787;28;20651;-87
2023/10/16 03:21:01;;;;;;;0.30;0.20;;;10.40;99.90;;;;;;5045186;28;20205;-82
2023/10/16 03:23:28;;;;;;;0.30;0.20;;;10.40;99.90;;;;;;5046763;28;20304;-74
2023/10/16 03:25:56;;;;;;;0.30;0.20;;;10.40;99.90;;;;;;5046180;28;20221;-86
2023/10/16 03:28:21;;;;;;;0.30;0.20;;;10.40;99.90;;;;;;5045473;28;20250;-74
2023/10/16 03:30:48;;;;;;;0.30;0.20;;;10.40;99.90;;;;;;5046570;28;20301;-87
2023/10/16 03:33:16;;;;;;;0.30;0.20;;;10.40;99.90;;;;;;5047311;28;20382;-74
2023/10/16 03:35:47;;;;;;;0.30;0.20;;;10.40;99.90;;;;;;5046796;28;20218;-73
2023/10/16 03:38:27;;;;;;;0.30;0.20;;;10.40;99.90;;;;;;5045214;28;20185;-74
2023/10/16 03:40:53;;;;;;;0.30;0.20;;;10.30;99.90;;;;;;5045311;28;20277;-73
2023/10/16 03:43:22;;;;;;;0.30;0.20;;;10.20;99.90;;;;;;5045120;28;20195;-87
2023/10/16 03:45:49;;;;;;;0.30;0.20;;;10.20;99.90;;;;;;5044423;28;20202;-74
2023/10/16 03:48:17;;;;;;;0.30;0.20;;;10.10;99.90;;;;;;5046427;28;20201;-87
2023/10/16 03:50:43;;;;;;;0.30;0.20;;;10.10;99.90;;;;;;5078176;28;20728;-73
2023/10/16 03:53:12;;;;;;;0.30;0.20;;;10.10;99.90;;;;;;5046108;28;20198;-73
2023/10/16 03:55:47;;;;;;;0.30;0.20;;;10.10;99.90;;;;;;5045763;28;20217;-74
2023/10/16 03:58:16;;;;;;;0.30;0.20;;;10.20;99.90;;;;;;5045980;28;20178;-73
2023/10/16 04:00:56;;;;;;;0.30;0.20;;;10.20;99.90;;;;;;5046417;28;20243;-73
2023/10/16 04:03:23;;;;;;;0.30;0.20;;;10.20;99.90;;;;;;5044646;28;20170;-87
2023/10/16 04:05:50;;;;;;;0.30;0.20;;;10.20;99.90;;;;;;5077809;28;20233;-87
2023/10/16 04:08:18;;;;;;;0.30;0.20;;;10.30;99.90;;;;;;5046276;28;20174;-74
2023/10/16 04:10:47;;;;;;;0.30;0.20;;;10.30;99.90;;;;;;5044412;28;20244;-87
2023/10/16 04:13:25;;;;;;;0.30;0.20;;;10.40;99.90;;;;;;5046713;28;20642;-73
2023/10/16 04:21:17;;;;;;;0.30;0.20;;;10.50;99.90;;;;;;5044645;28;20205;-88
2023/10/16 04:31:44;;;;;;;0.30;0.20;;;10.40;99.90;;;;;;5025409;28;20195;-77
2023/10/16 04:36:54;;;;;;;0.30;0.20;;;10.40;99.90;;;;;;5042816;28;20205;-74
2023/10/16 05:06:15;;;;;;;0.30;0.20;;;10.40;99.90;;;;;;5033304;28;20216;-85
2023/10/16 06:14:13;;;;;;;0.30;0.20;;;10.70;99.90;;;;;;5048570;28;20205;-72
2023/10/16 06:16:45;;;;;;;0.30;0.20;;;10.80;99.90;;;;;;5031754;28;20214;-73
2023/10/16 06:19:15;;;;;;;0.30;0.20;;;10.90;99.90;;;;;;5039951;28;20689;-80
2023/10/16 06:22:06;;;;;;;0.30;0.20;;;10.90;99.90;;;;;;5034838;28;20204;-73
2023/10/16 06:24:47;;;;;;;0.30;0.20;;;11.10;99.90;;;;;;5032727;28;20741;-73
2023/10/16 06:27:19;;;;;;;0.30;0.20;;;11.10;99.90;;;;;;5045715;28;20182;-73
2023/10/16 06:29:51;;;;;;;0.30;0.20;;;11.30;99.90;;;;;;5035032;28;20213;-87
2023/10/16 06:32:18;;;;;;;0.30;0.20;;;11.50;99.90;;;;;;5042276;28;20182;-74
2023/10/16 06:35:07;;;;;;;0.30;0.20;;;11.50;99.90;;;;;;5042484;28;20194;-88
2023/10/16 06:37:33;;;;;;;0.30;0.20;;;11.50;99.90;;;;;;5029260;28;20229;-74
2023/10/16 06:40:01;;;;;;;0.30;0.20;;;11.70;99.90;;;;;;5045290;28;20325;-87
2023/10/16 06:42:27;;;;;;;0.30;0.20;;;11.70;99.90;;;;;;5042850;28;20200;-73
2023/10/16 06:44:54;;;;;;;0.30;0.20;;;11.50;99.90;;;;;;5047803;28;20202;-72
2023/10/16 06:47:36;;;;;;;0.30;0.20;;;11.20;99.90;;;;;;5042257;28;20242;-73
2023/10/16 06:52:52;;;;;;;0.30;0.20;;;11.00;99.90;;;;;;5047744;28;20189;-73
2023/10/16 06:55:18;;;;;;;0.40;0.30;;;10.90;99.90;;;;;;5045739;28;20209;-72
2023/10/16 06:57:44;;;;;;;0.30;0.20;;;11.00;99.90;;;;;;5044064;28;20176;-73
2023/10/16 07:00:27;;;;;;;0.30;0.20;;;11.00;99.90;;;;;;5047327;28;20209;-86
2023/10/16 07:02:54;;;;;;;0.30;0.20;;;11.10;99.90;;;;;;5042882;28;20303;-72
2023/10/16 07:05:24;;;;;;;0.30;0.30;;;11.10;99.90;;;;;;5037935;28;20212;-73
2023/10/16 07:07:56;;;;;;;0.30;0.20;;;11.20;99.90;;;;;;5050235;28;20186;-87
2023/10/16 07:10:25;;;;;;;0.30;0.20;;;11.30;99.90;;;;;;5037616;28;20249;-86
2023/10/16 07:13:02;;;;;;;0.30;0.20;;;11.40;99.90;;;;;;5039347;28;20189;-87
2023/10/16 07:15:29;;;;;;;0.30;0.20;;;11.50;99.90;;;;;;5040226;28;20221;-87
2023/10/16 07:18:04;;;;;;;0.30;0.20;;;11.60;99.90;;;;;;5049021;28;20207;-73
2023/10/16 07:20:31;;;;;;;0.30;0.20;;;11.60;99.90;;;;;;5046018;28;20201;-87
2023/10/16 07:23:00;;;;;;;0.30;0.20;;;11.70;99.90;;;;;;5042949;28;20782;-73
2023/10/16 07:25:37;;;;;;;0.30;0.20;;;11.80;99.90;;;;;;5060458;28;20597;-90
2023/10/16 07:28:08;;;;;;;0.30;0.20;;;12.00;99.90;;;;;;5058703;28;20177;-89
2023/10/16 07:30:35;;;;;;;0.30;0.20;;;12.00;99.90;;;;;;5044782;28;20205;-88
2023/10/16 07:33:01;;;;;;;0.30;0.20;;;12.10;99.90;;;;;;5040377;28;20334;-89
2023/10/16 07:35:27;;;;;;;0.30;0.20;;;12.30;99.90;;;;;;5030173;28;20317;-74
2023/10/16 07:37:55;;;;;;;0.30;0.20;;;12.40;99.90;;;;;;5039141;28;20186;-89
2023/10/16 07:40:21;;;;;;;0.30;0.20;;;12.70;99.90;;;;;;5037343;28;20288;-91
2023/10/16 07:42:48;;;;;;;0.40;0.20;;;13.10;99.90;;;;;;5045622;28;20441;-88
2023/10/16 07:45:13;;;;;;;0.40;0.20;;;13.50;99.90;;;;;;5039555;28;20463;-75
2023/10/16 07:47:39;;;;;;;0.40;0.30;;;14.20;99.90;;;;;;5037451;28;21017;-85
2023/10/16 07:50:07;;;;;;;0.40;0.40;;;14.80;99.90;;;;;;5038403;28;20438;-74
2023/10/16 07:52:34;;;;;;;0.40;0.20;;;15.60;99.90;;;;;;5042240;28;20182;-89
2023/10/16 07:55:03;;;;;;;0.40;0.20;;;16.40;99.90;;;;;;5037399;28;20979;-89
2023/10/16 07:57:29;;;;;;;0.40;0.20;;;17.20;99.90;;;;;;5021591;28;20408;-75
2023/10/16 07:59:54;;;;;;;0.40;0.20;;;18.00;99.90;;;;;;5054144;28;20452;-89
2023/10/16 08:02:21;;;;;;;0.43;0.37;;;18.90;99.90;;;;;;5048873;28;20426;-75
2023/10/16 08:04:52;;;;;;;0.40;0.20;;;19.70;99.70;;;;;;5054661;28;20620;-89
2023/10/16 08:07:18;;;;;;;0.40;0.20;;;20.50;98.10;;;;;;5043677;28;20394;-89
2023/10/16 08:09:49;;;;;;;0.40;0.20;;;21.40;96.30;;;;;;5043938;28;20452;-75
2023/10/16 08:12:18;;;;;;;0.40;0.20;;;22.10;95.10;;;;;;5040854;28;20477;-76
2023/10/16 08:14:45;;;;;;;0.40;0.20;;;22.80;93.50;;;;;;5058639;28;20508;-76
2023/10/16 08:17:17;;;;;;;0.40;0.20;;;23.40;92.30;;;;;;5053668;28;20478;-90
2023/10/16 08:19:49;;;;;;;0.30;0.20;;;23.90;90.90;;;;;;5041345;28;20553;-76
2023/10/16 08:22:15;;;;;;;0.40;0.20;;;24.30;89.70;;;;;;5054902;28;20468;-89
2023/10/16 08:25:20;;;;;;;0.33;0.20;;;24.50;88.20;;;;;;5040083;28;20467;-88
2023/10/16 08:30:17;;;;;;;0.30;0.20;;;25.30;85.50;;;;;;5048678;28;20453;-76
2023/10/16 08:35:17;;;;;;;0.30;0.20;;;26.00;82.10;;;;;;5035271;28;20445;-89
2023/10/16 08:37:45;;;;;;;0.37;0.30;;;26.10;79.90;;;;;;5044431;28;21191;-88
2023/10/16 08:40:20;;;;;;;0.30;0.20;;;25.60;78.40;;;;;;5046927;28;20849;-75
2023/10/16 08:43:00;;;;;;;0.30;0.20;;;24.80;80.00;;;;;;5037576;28;20497;-76
2023/10/16 08:45:34;;;;;;;0.30;0.20;;;23.80;80.70;;;;;;5041902;28;20788;-75
2023/10/16 08:48:05;;;;;;;0.30;0.20;;;22.70;82.80;;;;;;5046379;28;20512;-76
2023/10/16 08:50:42;;;;;;;0.30;0.20;;;21.70;83.60;;;;;;5047928;28;20466;-88
2023/10/16 08:56:09;;;;;;;0.37;0.20;;;20.40;86.40;;;;;;5028821;28;20883;-75
2023/10/16 08:58:40;;;;;;;0.30;0.20;;;19.90;87.90;;;;;;5040323;28;20437;-75
2023/10/16 09:01:07;;;;;;;0.30;0.20;;;19.50;89.00;;;;;;5031786;28;20456;-88
2023/10/16 09:03:46;;;;;;;0.30;0.20;;;19.10;90.00;;;;;;5059579;28;20440;-88
2023/10/16 09:06:23;;;;;;;0.40;0.20;;;18.80;90.30;;;;;;5035627;28;20459;-90
2023/10/16 09:08:54;;;;;;;0.30;0.20;;;18.40;90.60;;;;;;5025789;28;20396;-89
2023/10/16 09:11:20;;;;;;;0.40;0.30;;;18.10;91.00;;;;;;5074288;28;20486;-89
2023/10/16 09:13:51;;;;;;;0.30;0.20;;;17.80;91.10;;;;;;5040918;28;20525;-89
2023/10/16 09:16:23;;;;;;;0.40;0.20;;;17.60;91.40;;;;;;5037426;28;20472;-88
2023/10/16 09:18:53;;;;;;;2.83;2.63;;;17.30;91.40;;;;;;5030584;28;20956;-88
2023/10/16 09:21:27;;;;;;;0.40;0.30;;;17.20;91.70;;;;;;5040950;28;20447;-88
2023/10/16 09:23:59;;;;;;;0.30;0.20;;;17.20;91.80;;;;;;5045159;28;20521;-89
2023/10/16 09:26:28;;;;;;;0.60;0.60;;;17.10;92.20;;;;;;5030799;28;20446;-75
2023/10/16 09:28:55;;;;;;;0.30;0.20;;;16.90;92.40;;;;;;5035548;28;20440;-89
2023/10/16 09:31:24;;;;;;;0.40;0.20;;;16.80;92.70;;;;;;5027194;28;20497;-75
2023/10/16 09:33:51;;;;;;;0.30;0.20;;;16.70;92.90;;;;;;5038437;28;20635;-88
2023/10/16 09:36:18;;;;;;;0.30;0.30;;;16.70;93.10;;;;;;5033712;28;20815;-75
2023/10/16 09:38:51;;;;;;;0.30;0.30;;;16.60;93.30;;;;;;5042636;28;20422;-75
2023/10/16 09:44:08;;;;;;;0.30;0.20;;;16.60;93.50;;;;;;5037767;28;20422;-75
2023/10/16 09:49:09;;;;;;;0.30;0.20;;;16.50;92.40;;;;;;5036569;28;20435;-88
2023/10/16 09:51:35;;;;;;;0.30;0.20;;;16.30;92.90;;;;;;5036039;28;20492;-75
2023/10/16 09:54:02;;;;;;;0.30;0.20;;;16.20;93.00;;;;;;5031384;28;20416;-76
2023/10/16 09:56:40;;;;;;;0.30;0.20;;;16.10;93.20;;;;;;5022161;28;20479;-75
2023/10/16 09:59:12;;;;;;;0.30;0.20;;;16.00;93.10;;;;;;5031199;28;20943;-75
2023/10/16 10:01:44;;;;;;;0.30;0.20;;;16.00;93.30;;;;;;5033188;28;20467;-75
2023/10/16 10:04:17;;;;;;;0.30;0.20;;;16.00;93.60;;;;;;5022786;28;20415;-75
2023/10/16 10:06:46;;;;;;;0.30;0.20;;;16.00;93.70;;;;;;5026303;28;20450;-89
2023/10/16 10:12:14;;;;;;;0.30;0.20;;;15.90;93.50;;;;;;5034603;28;20494;-89
2023/10/16 10:15:12;;;;;;;0.30;0.20;;;15.90;93.60;;;;;;5021092;28;20440;-76
2023/10/16 10:17:43;;;;;;;0.70;0.70;;;15.90;93.50;;;;;;5037677;28;20698;-90
2023/10/16 10:20:23;;;;;;;0.30;0.20;;;16.00;92.80;;;;;;5038240;28;20978;-89
2023/10/16 10:22:53;;;;;;;0.30;0.20;;;16.10;93.40;;;;;;5035935;28;20626;-75
2023/10/16 10:25:37;;;;;;;0.30;0.20;;;16.20;93.80;;;;;;5038969;28;20455;-75
2023/10/16 10:28:11;;;;;;;0.30;0.20;;;16.20;93.40;;;;;;5029279;28;20481;-75
2023/10/16 10:30:43;;;;;;;0.30;0.20;;;16.20;93.40;;;;;;5036540;28;20795;-90
2023/10/16 10:33:11;;;;;;;0.30;0.20;;;16.20;92.90;;;;;;5031691;28;20845;-89
2023/10/16 10:35:43;;;;;;;0.30;0.20;;;16.20;93.00;;;;;;5036755;28;20557;-75
2023/10/16 10:38:20;;;;;;;0.40;0.40;;;16.30;93.10;;;;;;5040246;28;20446;-75
2023/10/16 10:41:08;;;;;;;0.30;0.20;;;16.30;92.80;;;;;;5046588;28;20469;-75
2023/10/16 10:43:48;;;;;;;0.30;0.20;;;16.30;92.90;;;;;;5055909;28;20538;-75
2023/10/16 10:46:20;;;;;;;0.30;0.20;;;16.40;93.30;;;;;;5039915;28;20450;-90
2023/10/16 10:48:46;;;;;;;0.30;0.20;;;16.50;93.00;;;;;;5040605;28;20638;-91
2023/10/16 10:51:15;;;;;;;0.30;0.20;;;16.50;92.70;;;;;;5034078;28;20515;-90
2023/10/16 10:53:53;;;;;;;0.30;0.20;;;16.50;92.80;;;;;;5037283;28;20552;-75
2023/10/16 10:56:20;;;;;;;0.57;0.57;;;16.40;92.00;;;;;;5037714;28;20834;-75
2023/10/16 10:58:47;;;;;;;0.30;0.20;;;16.40;92.30;;;;;;5037036;28;20434;-75
2023/10/16 11:01:16;;;;;;;0.30;0.20;;;16.50;92.10;;;;;;5046412;28;20463;-76
2023/10/16 11:03:45;;;;;;;0.30;0.20;;;16.50;92.50;;;;;;5033144;28;20429;-75
2023/10/16 11:06:39;;;;;;;0.30;0.20;;;16.50;92.60;;;;;;5026586;28;20847;-89
2023/10/16 11:09:18;;;;;;;0.30;0.20;;;16.50;92.40;;;;;;5033421;28;21007;-90
2023/10/16 11:11:47;;;;;;;0.30;0.20;;;16.50;92.30;;;;;;5026423;28;20474;-75
2023/10/16 11:14:14;;;;;;;0.30;0.20;;;16.60;92.00;;;;;;5037809;28;20443;-75
2023/10/16 11:16:44;;;;;;;0.30;0.20;;;16.60;92.00;;;;;;5035310;28;20598;-89
2023/10/16 11:19:10;;;;;;;0.30;0.20;;;16.60;91.80;;;;;;5039478;28;20938;-75
2023/10/16 11:21:43;;;;;;;1.17;1.17;;;16.60;91.80;;;;;;5023811;28;20501;-75
2023/10/16 11:24:11;;;;;;;0.30;0.20;;;16.70;91.50;;;;;;5055973;28;20276;-75
2023/10/16 11:26:38;;;;;;;0.30;0.20;;;16.70;91.70;;;;;;5043959;28;20436;-75
2023/10/16 11:29:04;;;;;;;0.30;0.20;;;16.70;91.50;;;;;;5038914;28;20614;-90
2023/10/16 11:31:30;;;;;;;0.30;0.20;;;16.70;90.90;;;;;;5037335;28;20514;-76
2023/10/16 11:34:02;;;;;;;0.30;0.20;;;16.70;91.20;;;;;;5034671;28;20526;-89
2023/10/16 11:36:28;;;;;;;0.30;0.20;;;16.70;91.30;;;;;;5043828;28;20212;-89
2023/10/16 11:39:02;;;;;;;0.30;0.20;;;16.70;90.80;;;;;;5062236;28;20439;-88
2023/10/16 11:41:30;;;;;;;0.30;0.20;;;16.80;90.20;;;;;;5029801;28;20169;-88
2023/10/16 11:43:56;;;;;;;0.30;0.20;;;16.70;89.80;;;;;;5040355;28;20414;-89
2023/10/16 11:46:39;;;;;;;0.30;0.20;;;16.70;88.50;;;;;;5035620;28;20451;-89
2023/10/16 11:51:45;;;;;;;0.30;0.20;;;16.50;88.90;;;;;;5038833;28;20474;-75
2023/10/16 11:54:11;;;;;;;0.30;0.20;;;16.50;89.30;;;;;;5035197;28;20966;-74
2023/10/16 11:56:38;;;;;;;1.83;1.73;;;16.60;88.80;;;;;;5037624;28;20840;-89
2023/10/16 11:59:09;;;;;;;0.30;0.20;;;16.60;87.80;;;;;;5039420;28;21048;-89
2023/10/16 12:01:35;;;;;;;0.30;0.20;;;16.60;88.30;;;;;;5055212;28;20939;-75
2023/10/16 12:04:01;;;;;;;0.30;0.20;;;16.50;88.30;;;;;;5025888;28;20497;-75
2023/10/16 12:06:27;;;;;;;0.30;0.20;;;16.60;88.80;;;;;;5018339;28;20489;-75
2023/10/16 12:08:54;;;;;;;0.30;0.20;;;16.60;88.40;;;;;;5039348;28;20186;-75
2023/10/16 12:11:20;;;;;;;0.30;0.20;;;16.70;87.40;;;;;;5033325;28;20226;-89
2023/10/16 12:13:46;;;;;;;0.40;0.40;;;16.70;85.70;;;;;;5022548;28;20448;-79
2023/10/16 12:16:12;;;;;;;0.30;0.20;;;16.70;86.00;;;;;;5032850;28;20610;-75
2023/10/16 12:18:38;;;;;;;2.77;2.57;;;16.80;89.00;;;;;;5037223;28;20430;-75
2023/10/16 12:21:07;;;;;;;0.30;0.20;;;16.90;87.40;;;;;;5052845;28;20569;-75
2023/10/16 12:23:36;;;;;;;0.30;0.20;;;16.90;87.70;;;;;;5030759;28;20178;-75
2023/10/16 12:26:03;;;;;;;0.30;0.20;;;16.90;89.00;;;;;;5034939;28;20479;-90
2023/10/16 12:28:30;;;;;;;0.30;0.20;;;17.00;88.60;;;;;;5030446;28;20446;-75
2023/10/16 12:30:57;;;;;;;0.30;0.20;;;17.00;93.50;;;;;;5032070;28;21038;-74
2023/10/16 12:33:26;;;;;;;0.30;0.20;;;17.00;95.10;;;;;;5025749;28;20478;-89
2023/10/16 12:35:56;;;;;;;0.30;0.20;;;17.10;88.20;;;;;;5019381;28;20930;-89
2023/10/16 12:38:23;;;;;;;0.30;0.20;;;17.10;85.50;;;;;;5024855;28;20869;-74
2023/10/16 12:40:58;;;;;;;0.30;0.20;;;17.10;88.00;;;;;;5025907;28;20442;-75
2023/10/16 12:43:27;;;;;;;0.30;0.20;;;17.20;91.40;;;;;;5027502;28;20430;-89
2023/10/16 12:45:54;;;;;;;0.30;0.20;;;17.30;88.00;;;;;;5032622;28;20493;-89
2023/10/16 12:48:21;;;;;;;0.30;0.20;;;17.30;91.10;;;;;;5036977;28;20437;-89
2023/10/16 12:50:48;;;;;;;0.30;0.20;;;17.40;91.20;;;;;;5039994;28;20694;-75
2023/10/16 12:53:15;;;;;;;0.30;0.20;;;17.40;87.00;;;;;;5038182;28;20810;-88
2023/10/16 12:55:49;;;;;;;0.30;0.20;;;17.40;89.40;;;;;;5034022;28;20462;-87
2023/10/16 12:58:18;;;;;;;0.30;0.20;;;17.50;87.70;;;;;;5036030;28;20414;-74
2023/10/16 13:00:46;;;;;;;0.30;0.20;;;17.50;88.00;;;;;;5029308;28;20451;-84
2023/10/16 13:03:15;;;;;;;0.30;0.20;;;17.60;86.60;;;;;;5067337;28;20442;-89
2023/10/16 13:05:42;;;;;;;0.30;0.20;;;17.60;86.40;;;;;;5040182;28;20732;-75
2023/10/16 13:08:08;;;;;;;0.30;0.20;;;17.60;86.00;;;;;;5055828;28;20439;-74
2023/10/16 13:10:35;;;;;;;0.30;0.20;;;17.50;85.90;;;;;;5044141;28;20466;-74
2023/10/16 13:13:02;;;;;;;0.30;0.20;;;17.50;86.90;;;;;;5043630;28;20851;-89
2023/10/16 13:15:31;;;;;;;0.30;0.20;;;17.50;86.80;;;;;;5053778;28;20465;-85
2023/10/16 13:18:01;;;;;;;0.30;0.20;;;17.60;88.30;;;;;;5062929;28;20425;-74
2023/10/16 13:20:29;;;;;;;0.30;0.20;;;17.60;84.10;;;;;;5063052;28;20530;-74
2023/10/16 13:22:57;;;;;;;0.30;0.20;;;17.50;83.10;;;;;;5052735;28;20809;-88
2023/10/16 13:25:25;;;;;;;0.30;0.20;;;17.50;83.30;;;;;;5058382;28;20464;-74
2023/10/16 13:27:51;;;;;;;0.30;0.20;;;17.40;83.50;;;;;;5060351;28;20964;-74
2023/10/16 13:30:18;;;;;;;0.30;0.20;;;17.30;83.60;;;;;;5057473;28;20453;-88
2023/10/16 13:32:47;;;;;;;0.30;0.20;;;17.30;83.40;;;;;;5066534;28;20450;-87
2023/10/16 13:35:13;;;;;;;0.30;0.20;;;17.40;84.20;;;;;;5038992;28;20468;-88
2023/10/16 13:37:42;;;;;;;0.30;0.20;;;17.40;84.50;;;;;;5035835;28;20447;-74
2023/10/16 13:40:15;;;;;;;0.30;0.20;;;17.50;84.30;;;;;;5042419;28;20490;-74
2023/10/16 13:42:41;;;;;;;0.30;0.20;;;17.60;85.40;;;;;;5045270;28;20793;-88
2023/10/16 13:45:12;;;;;;;0.30;0.20;;;17.60;84.90;;;;;;5043627;28;20809;-89
2023/10/16 13:47:42;;;;;;;0.30;0.20;;;17.60;85.10;;;;;;5036940;28;20964;-75
2023/10/16 13:50:12;;;;;;;0.30;0.20;;;17.70;85.30;;;;;;5030410;28;20562;-89
2023/10/16 13:52:46;;;;;;;0.30;0.20;;;17.70;85.40;;;;;;5023968;28;20834;-75
2023/10/16 13:55:12;;;;;;;0.30;0.20;;;17.70;84.50;;;;;;5037724;28;20466;-75
2023/10/16 13:57:47;;;;;;;0.30;0.20;;;17.70;86.10;;;;;;5035682;28;20479;-87
2023/10/16 14:00:28;;;;;;;0.30;0.20;;;17.70;87.40;;;;;;5040056;28;20751;-88
2023/10/16 14:05:46;;;;;;;0.30;0.20;;;17.80;89.10;;;;;;5042874;28;20459;-78
2023/10/16 14:08:17;;;;;;;0.30;0.20;;;17.70;91.10;;;;;;5041091;28;20440;-86
2023/10/16 14:10:49;;;;;;;0.40;0.30;;;17.80;86.40;;;;;;5036696;28;20482;-87
2023/10/16 14:13:26;;;;;;;0.30;0.20;;;17.80;84.20;;;;;;5041889;28;20457;-74
2023/10/16 14:18:53;;;;;;;0.30;0.20;;;17.60;83.50;;;;;;5016892;28;20451;-74
2023/10/16 14:21:22;;;;;;;0.30;0.20;;;17.60;84.40;;;;;;5037227;28;20447;-74
2023/10/16 14:23:48;;;;;;;0.30;0.20;;;17.60;84.00;;;;;;5032738;28;20439;-74
2023/10/16 14:26:24;;;;;;;1.23;0.73;;;17.60;83.80;;;;;;5031449;28;20463;-74
2023/10/16 14:28:59;;;;;;;0.30;0.20;;;17.60;83.80;;;;;;5043783;28;20441;-91
2023/10/16 14:31:28;;;;;;;0.30;0.20;;;17.60;83.80;;;;;;5040139;28;20482;-90
2023/10/16 14:33:54;;;;;;;0.30;0.20;;;17.50;83.40;;;;;;5042629;28;20424;-89
2023/10/16 14:36:24;;;;;;;0.30;0.20;;;17.40;82.60;;;;;;5039418;28;20480;-87
2023/10/16 14:38:50;;;;;;;0.30;0.20;;;17.40;82.50;;;;;;5042713;28;20426;-74
2023/10/16 14:41:17;;;;;;;0.30;0.20;;;17.30;83.10;;;;;;5038160;28;21012;-88
2023/10/16 14:43:45;;;;;;;0.30;0.20;;;17.30;83.10;;;;;;5041716;28;20434;-87
2023/10/16 14:46:11;;;;;;;0.30;0.20;;;17.30;83.30;;;;;;5038148;28;20639;-86
2023/10/16 14:48:38;;;;;;;0.30;0.20;;;17.30;83.80;;;;;;5043324;28;20419;-88
2023/10/16 14:51:04;;;;;;;0.30;0.20;;;17.30;83.30;;;;;;5043251;28;20584;-74
2023/10/16 14:53:30;;;;;;;0.40;0.40;;;17.20;82.80;;;;;;5038715;28;20811;-74
2023/10/16 14:55:56;;;;;;;0.30;0.20;;;17.20;83.10;;;;;;5024104;28;20474;-75
2023/10/16 14:58:23;;;;;;;0.30;0.20;;;17.20;83.30;;;;;;5068552;28;20186;-77
2023/10/16 15:00:50;;;;;;;0.30;0.20;;;17.10;83.30;;;;;;5035206;28;20456;-76
2023/10/16 15:03:17;;;;;;;0.30;0.20;;;17.10;83.50;;;;;;5032815;28;20443;-76
2023/10/16 15:05:44;;;;;;;0.30;0.20;;;17.10;83.80;;;;;;5035150;28;20459;-77
2023/10/16 15:08:14;;;;;;;0.30;0.20;;;17.10;84.10;;;;;;5040822;28;20429;-77
2023/10/16 15:10:44;;;;;;;0.30;0.20;;;17.10;84.30;;;;;;5054164;28;21243;-77
2023/10/16 15:13:12;;;;;;;0.30;0.20;;;17.20;84.50;;;;;;5056599;28;20425;-80
2023/10/16 15:15:40;;;;;;;0.30;0.20;;;17.20;84.80;;;;;;5055494;28;20461;-78
2023/10/16 15:18:09;;;;;;;0.30;0.20;;;17.10;84.30;;;;;;5040759;28;20528;-77